createdAt,value
2023-01-27T00:03:44.969Z,97072.81
2023-01-27T00:07:47.042Z,97081.81
2023-01-27T00:11:59.692Z,97077.16
2023-01-27T00:16:02.639Z,97076.50
2023-01-27T00:20:03.964Z,97075.34
2023-01-27T00:24:16.784Z,97060.38
2023-01-27T00:28:22.922Z,97084.22
2023-01-27T00:32:38.132Z,97073.72
2023-01-27T00:36:39.916Z,97085.53
2023-01-27T00:40:40.050Z,97073.38
2023-01-27T00:45:00.184Z,97086.50
2023-01-27T00:49:03.038Z,97095.94
2023-01-27T00:53:03.709Z,97059.09
2023-01-27T00:57:04.432Z,97080.38
2023-01-27T01:01:08.031Z,97086.22
2023-01-27T01:05:11.834Z,97094.22
2023-01-27T01:09:11.858Z,97096.66
2023-01-27T01:13:12.376Z,97102.66
2023-01-27T01:17:12.517Z,97100.22
2023-01-27T01:21:16.298Z,97097.50
2023-01-27T01:25:16.622Z,97098.25
2023-01-27T01:29:16.921Z,97094.78
2023-01-27T01:33:17.085Z,97097.31
2023-01-27T01:37:19.883Z,97091.28
2023-01-27T01:41:23.002Z,97097.25
2023-01-27T01:45:50.558Z,97089.63
2023-01-27T01:49:51.227Z,97093.41
2023-01-27T01:54:00.876Z,97098.41
2023-01-27T01:58:01.353Z,97091.53
2023-01-27T02:02:07.779Z,97094.94
2023-01-27T02:06:09.347Z,97101.03
2023-01-27T02:10:14.021Z,97097.41
2023-01-27T02:14:18.945Z,97095.16
2023-01-27T02:18:22.278Z,97092.47
2023-01-27T02:22:31.556Z,97098.53
2023-01-27T02:26:39.948Z,97085.16
2023-01-27T02:30:40.195Z,97094.81
2023-01-27T02:34:41.420Z,97094.06
2023-01-27T02:38:49.335Z,97102.94
2023-01-27T02:42:52.795Z,97107.09
2023-01-27T02:46:53.171Z,97098.81
2023-01-27T02:50:56.172Z,97085.81
2023-01-27T02:54:56.280Z,97088.44
2023-01-27T02:58:59.179Z,97099.69
2023-01-27T03:03:07.727Z,97091.47
2023-01-27T03:07:07.940Z,97072.72
2023-01-27T03:11:08.890Z,97079.63
2023-01-27T03:15:26.019Z,97071.75
2023-01-27T03:19:26.882Z,97081.06
2023-01-27T03:23:27.843Z,97085.06
2023-01-27T03:27:28.151Z,97088.72
2023-01-27T03:31:54.770Z,97093.78
2023-01-27T03:36:07.680Z,97089.63
2023-01-27T03:40:24.713Z,97076.31
2023-01-27T03:44:37.324Z,97077.50
2023-01-27T03:48:40.583Z,97088.44
2023-01-27T03:52:40.698Z,97089.06
2023-01-27T03:56:40.713Z,97082.53
2023-01-27T04:00:40.767Z,97088.38
2023-01-27T04:04:55.876Z,97086.81
2023-01-27T04:08:56.485Z,97067.72
2023-01-27T04:12:56.566Z,97082.94
2023-01-27T04:16:59.772Z,97082.78
2023-01-27T04:21:02.404Z,97077.88
2023-01-27T04:25:02.682Z,97076.69
2023-01-27T04:29:03.424Z,97086.03
2023-01-27T04:33:05.464Z,97080.16
2023-01-27T04:37:09.872Z,97073.81
2023-01-27T04:41:09.931Z,97059.41
2023-01-27T04:45:12.637Z,97080.69
2023-01-27T04:49:13.900Z,97076.22
2023-01-27T04:53:16.653Z,97092.84
2023-01-27T04:57:16.777Z,97093.31
2023-01-27T05:01:16.810Z,97106.19
2023-01-27T05:05:16.944Z,97109.66
2023-01-27T05:09:20.079Z,97123.94
2023-01-27T05:13:20.097Z,97118.81
2023-01-27T05:17:20.298Z,97122.50
2023-01-27T05:21:23.265Z,97125.94
2023-01-27T05:25:25.837Z,97104.09
2023-01-27T05:29:26.468Z,97137.31
2023-01-27T05:33:26.538Z,97135.47
2023-01-27T05:37:26.669Z,97142.94
2023-01-27T05:41:31.538Z,97147.13
2023-01-27T05:45:31.581Z,97130.81
2023-01-27T05:49:31.957Z,97148.94
2023-01-27T05:53:32.146Z,97129.91
2023-01-27T05:57:34.806Z,97163.56
2023-01-27T06:01:37.761Z,97163.06
2023-01-27T06:05:38.351Z,97145.59
2023-01-27T06:09:38.934Z,97175.56
2023-01-27T06:13:41.910Z,97169.69
2023-01-27T06:17:42.178Z,97177.09
2023-01-27T06:21:42.217Z,97165.47
2023-01-27T06:25:44.763Z,97140.19
2023-01-27T06:29:47.638Z,97161.88
2023-01-27T06:33:48.345Z,97156.72
2023-01-27T06:37:50.086Z,97160.06
2023-01-27T06:41:52.200Z,97160.69
2023-01-27T06:45:57.684Z,97155.34
2023-01-27T06:49:57.878Z,97181.06
2023-01-27T06:53:57.896Z,97178.81
2023-01-27T06:57:58.178Z,97180.72
2023-01-27T07:02:01.991Z,97202.22
2023-01-27T07:06:02.202Z,97111.66
2023-01-27T07:10:02.310Z,97178.28
2023-01-27T07:14:03.118Z,97159.97
2023-01-27T07:18:07.432Z,97204.50
2023-01-27T07:22:08.181Z,97197.59
2023-01-27T07:26:23.321Z,97220.16
2023-01-27T07:30:25.006Z,97230.41
2023-01-27T07:34:27.905Z,97233.97
2023-01-27T07:38:27.988Z,97239.22
2023-01-27T07:42:28.175Z,97227.34
2023-01-27T07:46:28.438Z,97218.97
2023-01-27T07:50:31.245Z,97203.16
2023-01-27T07:54:39.311Z,97190.19
2023-01-27T07:58:39.397Z,97227.09
2023-01-27T08:02:39.468Z,97221.69
2023-01-27T08:06:43.666Z,97190.81
2023-01-27T08:10:48.282Z,97179.31
2023-01-27T08:15:40.770Z,97234.44
2023-01-27T08:19:40.849Z,97225.72
2023-01-27T08:23:43.641Z,97207.66
2023-01-27T08:27:43.749Z,97215.84
2023-01-27T08:31:44.385Z,97215.53
2023-01-27T08:35:45.443Z,97197.13
2023-01-27T08:39:48.109Z,97221.72
2023-01-27T08:43:49.405Z,97196.97
2023-01-27T08:47:49.555Z,97242.81
2023-01-27T08:51:49.680Z,97187.56
2023-01-27T08:55:54.675Z,97242.00
2023-01-27T08:59:58.198Z,97236.91
2023-01-27T09:08:35.036Z,97207.72
2023-01-27T09:12:37.732Z,97232.97
2023-01-27T09:16:37.975Z,97231.03
2023-01-27T09:20:38.398Z,97222.53
2023-01-27T09:24:40.400Z,97246.25
2023-01-27T09:28:43.184Z,97246.06
2023-01-27T09:32:44.228Z,97225.59
2023-01-27T09:36:51.041Z,97228.84
2023-01-27T09:41:26.677Z,97259.25
2023-01-27T09:46:10.052Z,97269.00
2023-01-27T09:50:42.527Z,97218.91
2023-01-27T09:55:00.547Z,97273.69
2023-01-27T09:59:28.499Z,97278.91
2023-01-27T10:03:59.250Z,97280.13
2023-01-27T10:08:24.807Z,97278.53
2023-01-27T10:12:47.834Z,97279.28
2023-01-27T10:17:21.579Z,97286.19
2023-01-27T10:21:37.012Z,97247.66
2023-01-27T10:25:55.490Z,97266.88
2023-01-27T10:30:02.696Z,97271.16
2023-01-27T10:34:21.611Z,97249.31
2023-01-27T10:38:42.056Z,97263.09
2023-01-27T10:42:52.178Z,97272.88
2023-01-27T10:47:04.298Z,97272.03
2023-01-27T10:51:11.669Z,97256.22
2023-01-27T10:55:25.668Z,97273.66
2023-01-27T10:59:37.211Z,97245.25
2023-01-27T11:03:45.046Z,97266.06
2023-01-27T11:08:05.710Z,97274.03
2023-01-27T11:12:14.649Z,97284.22
2023-01-27T11:16:20.415Z,97256.19
2023-01-27T11:20:35.159Z,97270.00
2023-01-27T11:29:35.316Z,97282.31
2023-01-27T11:33:58.218Z,97265.13
2023-01-27T11:38:14.922Z,97264.06
2023-01-27T11:42:17.362Z,97233.78
2023-01-27T11:46:27.456Z,97244.00
2023-01-27T11:50:33.490Z,97233.44
2023-01-27T11:54:39.451Z,97222.53
2023-01-27T11:58:46.713Z,97226.19
2023-01-27T12:03:00.940Z,97226.59
2023-01-27T12:07:08.395Z,97216.66
2023-01-27T12:11:36.805Z,97198.63
2023-01-27T12:15:40.239Z,97224.13
2023-01-27T12:19:52.091Z,97170.47
2023-01-27T12:23:59.310Z,97210.22
2023-01-27T12:28:05.591Z,97218.69
2023-01-27T12:32:22.115Z,97186.22
2023-01-27T12:36:29.148Z,97201.47
2023-01-27T12:40:32.370Z,97210.34
2023-01-27T12:45:22.195Z,97073.75
2023-01-27T12:49:28.661Z,97184.00
2023-01-27T12:53:31.547Z,97212.00
2023-01-27T12:57:35.891Z,97173.25
2023-01-27T13:01:41.493Z,97211.72
2023-01-27T13:05:46.136Z,97188.09
2023-01-27T13:09:58.741Z,97204.94
2023-01-27T13:14:01.365Z,97189.16
2023-01-27T13:18:03.594Z,97196.88
2023-01-27T13:22:06.885Z,97182.91
2023-01-27T13:26:19.149Z,97203.75
2023-01-27T13:30:30.420Z,97208.84
2023-01-27T13:34:53.304Z,97200.13
2023-01-27T13:39:03.218Z,97224.53
2023-01-27T13:43:15.175Z,97206.31
2023-01-27T13:47:22.187Z,97231.47
2023-01-27T13:51:26.536Z,97199.06
2023-01-27T13:55:50.934Z,97243.25
2023-01-27T14:00:10.793Z,97235.13
2023-01-27T14:09:20.314Z,97226.59
2023-01-27T14:13:55.064Z,97242.78
2023-01-27T14:18:06.509Z,97212.34
2023-01-27T14:22:19.461Z,97242.41
2023-01-27T14:26:43.058Z,97249.97
2023-01-27T14:30:47.131Z,97251.00
2023-01-27T14:35:10.028Z,97150.09
2023-01-27T14:39:23.801Z,97261.78
2023-01-27T14:43:39.537Z,97249.31
2023-01-27T14:47:54.458Z,97239.63
2023-01-27T14:52:05.395Z,97265.00
2023-01-27T14:56:15.503Z,97223.19
2023-01-27T15:00:33.344Z,97261.78
2023-01-27T15:04:54.018Z,97258.69
2023-01-27T15:09:09.798Z,97271.09
2023-01-27T15:13:40.058Z,97250.78
2023-01-27T15:18:03.968Z,97273.59
2023-01-27T15:22:42.074Z,97257.59
2023-01-27T15:26:46.121Z,97267.25
2023-01-27T15:31:23.029Z,97276.22
2023-01-27T15:35:41.790Z,97277.63
2023-01-27T15:40:05.603Z,97287.47
2023-01-27T15:44:19.101Z,97282.09
2023-01-27T15:48:27.381Z,97289.25
2023-01-27T15:52:34.616Z,97287.47
2023-01-27T15:56:50.455Z,97287.84
2023-01-27T16:00:59.255Z,97283.19
2023-01-27T16:05:18.284Z,97292.19
2023-01-27T16:09:36.038Z,97296.69
2023-01-27T16:13:38.780Z,97307.66
2023-01-27T16:18:02.644Z,97319.34
2023-01-27T16:22:07.557Z,97321.72
2023-01-27T16:26:25.467Z,97327.16
2023-01-27T16:30:30.589Z,97328.06
2023-01-27T16:34:40.974Z,97325.28
2023-01-27T16:38:45.865Z,97337.53
2023-01-27T16:43:04.908Z,97334.94
2023-01-27T16:47:16.878Z,97333.91
2023-01-27T16:51:26.039Z,97332.16
2023-01-27T16:55:26.965Z,97341.78
2023-01-27T16:59:31.128Z,97327.72
2023-01-27T17:03:39.857Z,97358.44
2023-01-27T17:07:42.465Z,97354.88
2023-01-27T17:11:46.052Z,97355.34
2023-01-27T17:15:47.239Z,97353.97
2023-01-27T17:19:51.562Z,97357.81
2023-01-27T17:23:54.716Z,97361.75
2023-01-27T17:27:55.316Z,97364.88
2023-01-27T17:31:55.635Z,97356.94
2023-01-27T17:36:00.062Z,97338.44
2023-01-27T17:40:05.497Z,97359.06
2023-01-27T17:44:14.014Z,97363.44
2023-01-27T17:48:16.049Z,97360.84
2023-01-27T17:52:23.865Z,97347.00
2023-01-27T17:56:32.355Z,97363.09
2023-01-27T18:00:38.365Z,97354.56
2023-01-27T18:04:45.037Z,97374.38
2023-01-27T18:08:54.919Z,97349.69
2023-01-27T18:12:59.080Z,97369.59
2023-01-27T18:17:05.545Z,97364.38
2023-01-27T18:21:15.756Z,97341.69
2023-01-27T18:25:21.776Z,97368.97
2023-01-27T18:29:30.341Z,97371.00
2023-01-27T18:33:30.620Z,97358.00
2023-01-27T18:37:34.417Z,97379.50
2023-01-27T18:41:38.174Z,97377.66
2023-01-27T18:45:41.040Z,97363.22
2023-01-27T18:49:41.145Z,97365.09
2023-01-27T18:53:41.199Z,97366.09
2023-01-27T18:57:41.581Z,97385.50
2023-01-27T19:01:44.435Z,97393.50
2023-01-27T19:05:44.632Z,97392.16
2023-01-27T19:09:45.753Z,97374.63
2023-01-27T19:13:46.460Z,97398.84
2023-01-27T19:17:50.619Z,97405.03
2023-01-27T19:21:50.787Z,97411.94
2023-01-27T19:25:55.468Z,97387.75
2023-01-27T19:29:55.779Z,97414.41
2023-01-27T19:33:58.569Z,97407.19
2023-01-27T19:38:00.401Z,97413.44
2023-01-27T19:42:00.511Z,97412.03
2023-01-27T19:46:00.952Z,97424.56
2023-01-27T19:50:05.179Z,97424.47
2023-01-27T19:54:05.325Z,97432.66
2023-01-27T19:58:06.018Z,97435.09
2023-01-27T20:02:06.253Z,97396.84
2023-01-27T20:06:18.550Z,97442.13
2023-01-27T20:10:22.926Z,97448.00
2023-01-27T20:14:25.872Z,97416.69
2023-01-27T20:18:26.867Z,97454.53
2023-01-27T20:22:29.911Z,97444.06
2023-01-27T20:26:31.441Z,97448.13
2023-01-27T20:30:36.456Z,97448.22
2023-01-27T20:34:38.737Z,97447.88
2023-01-27T20:38:42.293Z,97456.63
2023-01-27T20:42:42.511Z,97461.66
2023-01-27T20:46:43.000Z,97459.94
2023-01-27T20:50:43.015Z,97448.88
2023-01-27T20:54:45.809Z,97443.88
2023-01-27T20:58:46.480Z,97452.53
2023-01-27T21:02:46.790Z,97451.25
2023-01-27T21:06:46.937Z,97464.03
2023-01-27T21:10:49.683Z,97463.03
2023-01-27T21:14:49.919Z,97453.09
2023-01-27T21:18:50.046Z,97453.75
2023-01-27T21:22:50.380Z,97448.13
2023-01-27T21:26:54.490Z,97440.34
2023-01-27T21:30:54.575Z,97448.13
2023-01-27T21:34:56.595Z,97441.53
2023-01-27T21:38:58.029Z,97431.34
2023-01-27T21:43:13.067Z,97464.09
2023-01-27T21:47:15.951Z,97436.75
2023-01-27T21:51:16.437Z,97423.28
2023-01-27T21:55:20.638Z,97457.53
